Time;durP1;ratioP1;P1;durP2;ratioP2;P2;SDS_P1;SDS_P2;PMS_P1;PMS_P2;Temp;Humidity;BMP_temperature;BMP_pressure;BME280_temperature;BME280_humidity;BME280_pressure;Samples;Min_cycle;Max_cycle;Signal;HPM_P1;HPM_P2
2022/04/15 00:02:06;;;;;;;29.98;18.20;;;;;;;12.72;94.49;101359.66;8260335;28;20061;-65
2022/04/15 00:06:08;;;;;;;28.55;17.67;;;;;;;12.44;95.87;101365.75;8265093;28;20042;-65
2022/04/15 00:10:09;;;;;;;31.83;18.15;;;;;;;12.53;95.20;101362.25;8255319;28;20096;-65
2022/04/15 00:14:11;;;;;;;26.15;17.42;;;;;;;12.60;93.97;101366.16;8269763;28;20050;-65
2022/04/15 00:18:12;;;;;;;22.80;15.57;;;;;;;12.66;92.80;101357.47;8253479;28;20045;-65
2022/04/15 00:22:12;;;;;;;29.02;16.88;;;;;;;12.46;93.24;101369.16;8258445;28;20034;-65
2022/04/15 00:26:13;;;;;;;28.45;16.80;;;;;;;12.35;93.83;101358.41;8285858;28;20038;-65
2022/04/15 00:30:13;;;;;;;31.77;16.98;;;;;;;12.35;94.21;101359.25;8289797;28;20038;-65
2022/04/15 00:34:14;;;;;;;32.50;17.63;;;;;;;12.36;93.95;101362.81;8287160;28;20046;-65
2022/04/15 00:38:14;;;;;;;28.20;18.20;;;;;;;11.87;96.28;101369.69;8282796;28;20045;-65
2022/04/15 00:42:14;;;;;;;27.95;17.05;;;;;;;11.76;97.87;101358.88;8284354;28;20672;-65
2022/04/15 00:46:15;;;;;;;31.02;18.63;;;;;;;11.65;98.79;101367.03;8264580;28;20153;-65
2022/04/15 00:50:17;;;;;;;39.80;18.48;;;;;;;11.57;98.59;101358.66;8279260;28;20046;-65
2022/04/15 00:54:19;;;;;;;30.73;18.13;;;;;;;11.43;99.54;101367.06;8288276;28;20056;-65
2022/04/15 00:58:23;;;;;;;32.28;18.00;;;;;;;11.44;100.00;101366.06;8288447;28;20038;-65
2022/04/15 01:02:25;;;;;;;34.30;18.77;;;;;;;11.42;100.00;101365.34;8286727;28;20038;-65
2022/04/15 01:06:30;;;;;;;37.45;18.75;;;;;;;11.40;100.00;101367.31;8286967;28;20042;-64
2022/04/15 01:10:35;;;;;;;37.70;18.50;;;;;;;11.16;100.00;101372.00;8287974;28;20034;-64
2022/04/15 01:14:38;;;;;;;32.65;18.77;;;;;;;11.07;100.00;101374.59;8287455;28;20034;-64
2022/04/15 01:18:39;;;;;;;36.78;19.92;;;;;;;10.95;100.00;101373.69;8288604;28;20037;-65
2022/04/15 01:22:45;;;;;;;33.70;18.88;;;;;;;10.86;100.00;101377.13;8257720;28;20045;-64
2022/04/15 01:26:45;;;;;;;38.70;19.20;;;;;;;11.09;100.00;101372.59;8256978;28;20300;-64
2022/04/15 01:30:46;;;;;;;36.00;18.52;;;;;;;11.08;100.00;101371.75;8265644;28;20073;-64
2022/04/15 01:34:47;;;;;;;29.67;18.40;;;;;;;11.12;100.00;101377.78;8267252;28;20046;-65
2022/04/15 01:38:47;;;;;;;35.22;18.60;;;;;;;11.04;100.00;101386.50;8255930;28;20069;-65
2022/04/15 01:42:48;;;;;;;37.65;17.98;;;;;;;10.77;100.00;101383.28;8266582;28;20038;-64
2022/04/15 01:46:48;;;;;;;31.25;18.50;;;;;;;10.75;100.00;101378.97;8286809;28;20046;-64
2022/04/15 01:50:48;;;;;;;33.50;18.48;;;;;;;10.83;100.00;101382.78;8287520;28;20046;-64
2022/04/15 01:54:49;;;;;;;39.10;18.70;;;;;;;10.61;100.00;101388.16;8286751;28;20125;-65
2022/04/15 01:58:49;;;;;;;37.75;19.25;;;;;;;10.47;100.00;101388.41;8286605;28;20046;-65
2022/04/15 02:02:50;;;;;;;32.10;19.02;;;;;;;10.40;100.00;101395.22;8285350;28;20109;-65
2022/04/15 02:06:51;;;;;;;40.83;20.52;;;;;;;10.46;100.00;101393.91;8283370;28;20379;-65
2022/04/15 02:10:51;;;;;;;33.60;18.92;;;;;;;10.24;100.00;101397.41;8286488;28;20034;-65
2022/04/15 02:14:51;;;;;;;34.63;20.20;;;;;;;10.07;100.00;101403.25;8259523;28;20054;-65
2022/04/15 02:18:52;;;;;;;37.47;20.25;;;;;;;10.15;100.00;101411.59;8257532;28;20042;-65
2022/04/15 02:22:54;;;;;;;37.45;20.13;;;;;;;10.03;100.00;101413.38;8255629;28;20034;-65
2022/04/15 02:26:54;;;;;;;40.05;21.52;;;;;;;9.93;100.00;101411.47;8286144;28;20470;-65
2022/04/15 02:30:54;;;;;;;41.67;21.88;;;;;;;10.18;100.00;101414.06;8285005;28;20038;-65
2022/04/15 02:34:55;;;;;;;41.10;23.25;;;;;;;10.36;100.00;101415.38;8285329;28;20053;-65
2022/04/15 02:38:56;;;;;;;37.13;20.58;;;;;;;10.28;100.00;101401.56;8285989;28;20406;-65
2022/04/15 02:42:56;;;;;;;33.28;20.30;;;;;;;10.15;100.00;101418.88;8267329;28;20045;-65
2022/04/15 02:46:58;;;;;;;40.88;20.95;;;;;;;9.76;100.00;101425.38;8285439;28;20034;-65
2022/04/15 02:51:00;;;;;;;38.38;20.63;;;;;;;9.80;100.00;101421.47;8261398;28;20117;-65
2022/04/15 02:55:01;;;;;;;38.85;22.02;;;;;;;9.79;100.00;101414.34;8253415;28;20414;-65
2022/04/15 02:59:01;;;;;;;40.78;21.35;;;;;;;9.91;100.00;101419.69;8253704;28;20034;-65
2022/04/15 03:03:02;;;;;;;39.15;21.50;;;;;;;9.94;100.00;101418.59;8252330;28;20042;-65
2022/04/15 03:07:02;;;;;;;44.20;22.30;;;;;;;9.75;100.00;101412.84;8252222;28;20073;-65
2022/04/15 03:11:02;;;;;;;41.10;23.38;;;;;;;9.88;100.00;101419.91;8252379;28;20440;-65
2022/04/15 03:15:04;;;;;;;45.22;22.13;;;;;;;9.78;100.00;101418.00;8282043;28;20526;-65
2022/04/15 03:19:05;;;;;;;40.38;23.48;;;;;;;9.84;100.00;101422.94;8283369;28;20046;-65
2022/04/15 03:23:05;;;;;;;43.80;23.67;;;;;;;9.79;100.00;101426.00;8254889;28;20046;-65
2022/04/15 03:27:06;;;;;;;50.17;24.98;;;;;;;10.03;100.00;101426.00;8285000;28;20042;-65
2022/04/15 03:31:06;;;;;;;46.55;24.55;;;;;;;9.76;100.00;101420.81;8284343;28;20134;-65
2022/04/15 03:35:07;;;;;;;49.67;26.92;;;;;;;9.56;100.00;101420.56;8282733;28;20490;-65
2022/04/15 03:39:07;;;;;;;49.22;26.02;;;;;;;9.70;100.00;101425.84;8284911;28;20041;-65
2022/04/15 03:43:08;;;;;;;63.63;29.67;;;;;;;9.68;100.00;101419.66;8284337;28;20102;-65
2022/04/15 03:47:08;;;;;;;52.17;26.58;;;;;;;9.68;100.00;101427.78;8283904;28;20091;-65
2022/04/15 03:51:11;;;;;;;55.42;28.27;;;;;;;9.56;100.00;101428.66;8264652;28;20080;-65
2022/04/15 03:55:14;;;;;;;55.15;29.08;;;;;;;9.58;100.00;101426.72;8272121;28;20092;-65
2022/04/15 03:59:14;;;;;;;65.25;30.98;;;;;;;9.64;100.00;101431.69;8288802;28;20092;-65
2022/04/15 04:03:15;;;;;;;56.15;29.85;;;;;;;9.67;100.00;101436.84;8260806;28;20042;-65
2022/04/15 04:07:16;;;;;;;55.42;28.25;;;;;;;9.64;100.00;101431.69;8257842;28;20034;-65
2022/04/15 04:11:17;;;;;;;58.72;27.92;;;;;;;9.65;100.00;101433.41;8259677;28;20076;-65
2022/04/15 04:15:18;;;;;;;54.95;27.63;;;;;;;9.64;100.00;101431.69;8259570;28;20466;-65
2022/04/15 04:19:18;;;;;;;50.97;26.35;;;;;;;9.61;100.00;101429.22;8262239;28;20185;-65
2022/04/15 04:23:18;;;;;;;45.30;24.73;;;;;;;9.53;100.00;101434.28;8258211;28;20066;-65
2022/04/15 04:27:19;;;;;;;48.03;25.90;;;;;;;9.48;100.00;101441.84;8290360;28;20494;-66
2022/04/15 04:31:22;;;;;;;57.33;27.70;;;;;;;9.18;100.00;101430.59;8290525;28;20118;-66
2022/04/15 04:35:22;;;;;;;54.50;29.85;;;;;;;9.09;100.00;101448.25;8288155;28;20046;-66
2022/04/15 04:39:25;;;;;;;61.80;31.75;;;;;;;8.79;100.00;101446.88;8288758;28;20053;-66
2022/04/15 04:43:26;;;;;;;72.47;34.25;;;;;;;8.75;100.00;101450.75;8289099;28;20042;-66
2022/04/15 04:47:27;;;;;;;68.03;32.58;;;;;;;8.99;100.00;101449.00;8271872;28;20528;-65
2022/04/15 04:51:27;;;;;;;64.22;33.08;;;;;;;9.27;100.00;101462.31;8273067;28;20072;-66
2022/04/15 04:55:28;;;;;;;53.78;30.10;;;;;;;9.24;100.00;101459.81;8279209;28;20042;-66
2022/04/15 04:59:29;;;;;;;59.65;30.23;;;;;;;9.08;100.00;101475.34;8287692;28;20049;-66
2022/04/15 05:03:29;;;;;;;60.45;31.60;;;;;;;9.44;100.00;101472.75;8268542;28;20034;-66
2022/04/15 05:07:30;;;;;;;68.80;32.63;;;;;;;9.54;100.00;101479.19;8280411;28;20048;-66
2022/04/15 05:11:31;;;;;;;61.78;29.92;;;;;;;9.88;100.00;101483.84;8287301;28;20486;-66
2022/04/15 05:15:31;;;;;;;54.10;29.25;;;;;;;9.76;100.00;101479.38;8260753;28;20046;-66
2022/04/15 05:19:32;;;;;;;51.85;28.30;;;;;;;9.63;100.00;101484.81;8257752;28;20561;-66
2022/04/15 05:23:32;;;;;;;55.55;28.65;;;;;;;10.04;100.00;101487.19;8256827;28;20030;-66
2022/04/15 05:27:32;;;;;;;53.47;28.63;;;;;;;10.22;100.00;101496.66;8253225;28;20037;-66
2022/04/15 05:31:33;;;;;;;46.70;27.45;;;;;;;10.36;100.00;101509.13;8254255;28;20461;-66
2022/04/15 05:35:33;;;;;;;46.63;25.48;;;;;;;10.29;100.00;101506.03;8250626;28;20061;-66
2022/04/15 05:39:34;;;;;;;50.15;27.55;;;;;;;10.47;100.00;101517.28;8251259;28;20042;-66
2022/04/15 05:43:34;;;;;;;47.35;26.83;;;;;;;10.70;100.00;101516.44;8253009;28;20596;-66
2022/04/15 05:47:36;;;;;;;50.25;25.63;;;;;;;10.88;100.00;101515.88;8253426;28;20438;-66
2022/04/15 05:51:36;;;;;;;51.15;26.45;;;;;;;11.16;100.00;101523.56;8258341;28;20041;-66
2022/04/15 05:55:36;;;;;;;43.70;25.63;;;;;;;11.37;100.00;101527.28;8266354;28;20042;-66
2022/04/15 05:59:37;;;;;;;51.08;25.40;;;;;;;11.47;100.00;101530.16;8254688;28;20424;-66
2022/04/15 06:03:37;;;;;;;46.75;24.80;;;;;;;11.77;100.00;101534.00;8252871;28;20389;-66
2022/04/15 06:07:38;;;;;;;45.15;23.17;;;;;;;11.96;100.00;101541.50;8255338;28;20048;-66
2022/04/15 06:11:41;;;;;;;44.50;24.45;;;;;;;12.14;100.00;101547.28;8265351;28;20034;-66
2022/04/15 06:15:51;;;;;;;43.40;22.85;;;;;;;12.17;100.00;101547.03;8249294;28;20050;-66
2022/04/15 06:19:51;;;;;;;45.80;25.13;;;;;;;12.24;100.00;101542.81;8256517;28;20073;-66
2022/04/15 06:23:51;;;;;;;44.45;25.52;;;;;;;12.39;100.00;101555.09;8261633;28;20041;-66
2022/04/15 06:27:54;;;;;;;51.67;24.48;;;;;;;12.30;100.00;101558.56;8262980;28;20046;-66
2022/04/15 06:31:54;;;;;;;37.78;22.73;;;;;;;12.32;100.00;101556.63;8259836;28;20046;-66
2022/04/15 06:35:55;;;;;;;49.83;25.13;;;;;;;12.44;100.00;101572.72;8252544;28;20045;-66
2022/04/15 06:39:55;;;;;;;49.67;25.02;;;;;;;12.12;100.00;101565.50;8250517;28;20034;-66
2022/04/15 06:43:55;;;;;;;42.17;24.95;;;;;;;12.08;100.00;101575.75;8262280;28;20060;-66
2022/04/15 06:47:56;;;;;;;50.60;26.35;;;;;;;12.11;100.00;101580.94;8265990;28;20103;-66
2022/04/15 06:51:56;;;;;;;53.03;25.77;;;;;;;12.25;100.00;101577.94;8261992;28;20053;-66
2022/04/15 06:55:57;;;;;;;46.60;27.80;;;;;;;12.39;100.00;101593.06;8262368;28;20045;-66
2022/04/15 06:59:58;;;;;;;50.22;27.48;;;;;;;12.73;100.00;101600.16;8265914;28;20057;-66
2022/04/15 07:03:58;;;;;;;47.13;28.50;;;;;;;12.84;100.00;101597.41;8258021;28;20119;-66
2022/04/15 07:07:59;;;;;;;47.38;27.88;;;;;;;12.93;100.00;101607.50;8243506;28;20600;-66
2022/04/15 07:11:59;;;;;;;50.92;27.88;;;;;;;12.93;100.00;101607.50;8260545;28;20423;-64
2022/04/15 07:16:01;;;;;;;42.80;26.02;;;;;;;13.26;100.00;101612.78;8265153;28;20219;-62
2022/04/15 07:20:01;;;;;;;53.28;29.35;;;;;;;13.34;99.02;101624.75;8254322;28;20081;-66
2022/04/15 07:24:02;;;;;;;45.17;27.80;;;;;;;13.57;96.87;101614.59;8264787;28;20041;-66
2022/04/15 07:28:03;;;;;;;47.65;26.73;;;;;;;13.80;94.34;101616.19;8261393;28;20038;-66
2022/04/15 07:32:04;;;;;;;43.38;24.95;;;;;;;13.88;93.76;101619.09;8259774;28;20294;-63
2022/04/15 07:36:31;;;;;;;42.15;23.98;;;;;;;13.93;93.06;101619.53;8256531;28;20526;-65
2022/04/15 07:40:28;;;;;;;36.65;23.63;;;;;;;14.01;91.66;101622.44;8249667;28;20042;-65
2022/04/15 07:44:30;;;;;;;39.92;23.95;;;;;;;14.70;90.48;101627.00;8253678;28;20048;-65
2022/04/15 07:48:30;;;;;;;42.65;28.23;;;;;;;14.26;89.14;101624.72;8258417;28;20042;-65
2022/04/15 07:52:33;;;;;;;61.45;35.88;;;;;;;13.94;90.83;101634.88;8263253;28;20033;-67
2022/04/15 07:56:33;;;;;;;70.32;42.75;;;;;;;13.56;93.55;101629.19;8264098;28;20042;-65
2022/04/15 08:00:36;;;;;;;96.25;50.65;;;;;;;13.45;93.74;101642.84;8263963;28;20089;-65
2022/04/15 08:04:41;;;;;;;100.30;54.03;;;;;;;13.08;94.40;101644.22;8247273;28;20134;-65
2022/04/15 08:08:41;;;;;;;;;;;;;;;12.89;96.13;101654.88;8255528;28;20038;-65
2022/04/15 08:12:42;;;;;;;114.97;59.60;;;;;;;12.72;97.57;101652.69;8259607;28;20392;-65
2022/04/15 08:16:42;;;;;;;129.77;63.17;;;;;;;12.73;97.51;101657.13;8271681;28;20400;-65
2022/04/15 08:20:43;;;;;;;145.88;64.93;;;;;;;12.49;99.50;101656.44;8262338;28;20441;-66
2022/04/15 08:24:45;;;;;;;157.85;68.25;;;;;;;12.47;100.00;101659.25;8271895;28;20049;-66
2022/04/15 08:28:45;;;;;;;170.65;73.07;;;;;;;12.43;99.76;101665.06;8271822;28;20042;-66
2022/04/15 08:32:53;;;;;;;178.68;71.90;;;;;;;12.34;100.00;101657.66;8268488;28;20030;-66
2022/04/15 08:36:53;;;;;;;198.63;74.30;;;;;;;12.32;100.00;101665.09;8253267;28;20042;-65
2022/04/15 08:40:56;;;;;;;204.88;75.90;;;;;;;12.14;100.00;101677.41;8259036;28;20044;-65
2022/04/15 08:44:57;;;;;;;202.45;72.95;;;;;;;12.01;100.00;101679.38;8261061;28;20458;-66
2022/04/15 08:49:00;;;;;;;203.57;73.28;;;;;;;11.88;100.00;101682.16;8272132;28;20045;-65
2022/04/15 08:53:01;;;;;;;197.35;73.90;;;;;;;11.82;100.00;101694.38;8260104;28;20035;-65
2022/04/15 08:57:01;;;;;;;213.52;74.40;;;;;;;11.91;100.00;101709.03;8263275;28;20052;-65
2022/04/15 09:01:02;;;;;;;200.50;69.75;;;;;;;11.66;100.00;101710.09;8266741;28;20034;-65
2022/04/15 09:05:05;;;;;;;188.63;69.38;;;;;;;11.71;100.00;101707.88;8264695;28;20049;-65
2022/04/15 09:09:08;;;;;;;175.73;63.28;;;;;;;11.59;100.00;101716.91;8268508;28;20053;-65
2022/04/15 09:13:20;;;;;;;187.30;65.20;;;;;;;11.40;100.00;101716.59;8271725;28;20133;-65
2022/04/15 09:17:23;;;;;;;184.50;64.82;;;;;;;11.37;100.00;101724.06;8270368;28;20056;-66
2022/04/15 09:21:25;;;;;;;202.00;69.43;;;;;;;11.16;100.00;101720.31;8270753;28;20153;-65
2022/04/15 09:25:27;;;;;;;185.50;63.58;;;;;;;11.05;100.00;101737.34;8269260;28;20125;-65
2022/04/15 09:29:34;;;;;;;166.10;60.13;;;;;;;11.19;100.00;101731.75;8272028;28;20522;-65
2022/04/15 09:33:35;;;;;;;158.52;58.72;;;;;;;11.16;100.00;101737.38;8266009;28;20049;-66
2022/04/15 09:37:42;;;;;;;172.90;62.47;;;;;;;11.18;100.00;101740.84;8262072;28;20058;-66
2022/04/15 09:41:54;;;;;;;148.48;54.38;;;;;;;11.32;100.00;101746.06;8275030;28;20045;-66
2022/04/15 09:45:55;;;;;;;134.80;53.42;;;;;;;11.38;100.00;101737.50;8265103;28;20042;-66
2022/04/15 09:49:55;;;;;;;133.15;52.65;;;;;;;11.46;100.00;101745.91;8278933;28;20038;-66
2022/04/15 09:54:01;;;;;;;158.10;59.67;;;;;;;11.60;100.00;101748.44;8256054;28;20045;-66
2022/04/15 09:58:07;;;;;;;162.05;61.22;;;;;;;11.70;100.00;101744.09;8260608;28;20284;-66
2022/04/15 10:02:12;;;;;;;148.93;59.85;;;;;;;11.77;99.03;101744.44;8253968;28;20046;-66
2022/04/15 10:06:12;;;;;;;140.30;55.17;;;;;;;12.02;97.27;101738.00;8263394;28;20510;-66
2022/04/15 10:10:13;;;;;;;113.25;47.75;;;;;;;12.28;92.35;101739.50;8267178;28;20410;-66
2022/04/15 10:14:15;;;;;;;98.93;44.20;;;;;;;12.15;90.88;101739.63;8266301;28;20503;-66
2022/04/15 10:18:17;;;;;;;73.53;38.83;;;;;;;15.48;77.42;101734.13;8250047;28;20045;-66
2022/04/15 10:22:19;;;;;;;56.28;32.78;;;;;;;19.18;65.27;101726.28;8265984;28;20052;-66
2022/04/15 10:26:21;;;;;;;53.13;31.25;;;;;;;18.66;65.01;101734.81;8268945;28;20070;-66
2022/04/15 10:30:21;;;;;;;56.03;32.55;;;;;;;17.20;68.05;101725.47;8270207;28;20069;-66
2022/04/15 10:34:22;;;;;;;49.88;33.50;;;;;;;16.15;71.45;101725.00;8259065;28;20045;-66
2022/04/15 10:38:22;;;;;;;49.47;34.13;;;;;;;16.56;70.61;101727.38;8265161;28;20497;-66
2022/04/15 10:42:31;;;;;;;51.30;32.78;;;;;;;15.88;72.19;101727.63;8252137;28;20043;-66
2022/04/15 10:46:35;;;;;;;49.92;34.05;;;;;;;15.15;74.95;101729.00;8260605;28;20038;-66
2022/04/15 10:50:39;;;;;;;50.67;33.88;;;;;;;16.86;72.41;101721.63;8258727;28;20070;-66
2022/04/15 10:54:45;;;;;;;39.33;28.38;;;;;;;17.39;67.56;101719.88;8262517;28;20053;-66
2022/04/15 11:01:13;;;;;;;38.67;27.52;;;;;;;17.05;66.74;101714.16;8265259;28;20037;-66
2022/04/15 11:03:27;;;;;;;40.67;30.40;;;;;;;16.15;69.58;101714.09;8269837;28;20041;-66
2022/04/15 11:07:29;;;;;;;43.55;29.50;;;;;;;16.45;68.47;101716.63;8274555;28;20050;-66
2022/04/15 11:11:35;;;;;;;35.53;27.92;;;;;;;18.81;62.17;101709.34;8251948;28;20868;-66
2022/04/15 11:16:12;;;;;;;38.38;27.80;;;;;;;20.59;59.77;101714.00;8263370;28;20070;-66
2022/04/15 11:20:13;;;;;;;36.42;28.20;;;;;;;19.18;59.94;101704.34;8266662;28;20057;-66
2022/04/15 11:24:19;;;;;;;39.72;28.55;;;;;;;21.68;56.41;101705.53;8259986;28;20125;-66
2022/04/15 11:28:20;;;;;;;34.58;27.58;;;;;;;21.19;54.82;101713.25;8264754;28;20119;-66
2022/04/15 11:32:20;;;;;;;46.15;32.50;;;;;;;19.43;60.48;101713.53;8265934;28;20041;-66
2022/04/15 11:36:23;;;;;;;41.60;29.60;;;;;;;19.57;61.46;101714.75;8266871;28;20053;-66
2022/04/15 11:40:24;;;;;;;37.45;28.08;;;;;;;17.92;63.18;101711.66;8268533;28;20057;-65
2022/04/15 11:44:30;;;;;;;40.90;28.52;;;;;;;17.46;64.30;101707.31;8267701;28;20037;-65
2022/04/15 11:48:30;;;;;;;39.63;30.35;;;;;;;16.16;67.85;101707.66;8247226;28;20038;-65
2022/04/15 11:52:30;;;;;;;45.67;32.08;;;;;;;15.73;69.67;101704.56;8268089;28;20664;-65
2022/04/15 11:56:34;;;;;;;47.53;34.80;;;;;;;15.92;69.94;101701.81;8252545;28;20550;-65
2022/04/15 12:00:35;;;;;;;44.43;31.77;;;;;;;15.95;69.94;101701.53;8261445;28;20077;-65
2022/04/15 12:04:35;;;;;;;48.95;30.80;;;;;;;15.64;72.09;101696.25;8255231;28;20073;-65
2022/04/15 12:08:36;;;;;;;36.42;24.73;;;;;;;16.14;69.30;101691.44;8261467;28;20069;-65
2022/04/15 12:12:37;;;;;;;34.15;25.90;;;;;;;16.41;68.63;101690.63;8263276;28;20104;-65
2022/04/15 12:16:39;;;;;;;27.70;22.02;;;;;;;17.35;66.23;101699.28;8265636;28;20412;-65
2022/04/15 12:20:41;;;;;;;32.42;24.30;;;;;;;18.29;63.81;101693.97;8263542;28;20560;-65
2022/04/15 12:24:42;;;;;;;26.10;18.58;;;;;;;18.09;62.36;101692.47;8261751;28;20038;-62
2022/04/15 12:29:47;;;;;;;25.48;16.52;;;;;;;18.50;62.36;101686.25;8257239;28;20038;-65
2022/04/15 12:33:07;;;;;;;23.17;15.40;;;;;;;16.49;65.23;101686.16;8251849;28;20063;-66
2022/04/15 12:37:36;;;;;;;17.67;13.97;;;;;;;15.85;66.10;101684.31;8236713;28;20047;-66
2022/04/15 12:41:40;;;;;;;18.65;13.00;;;;;;;15.77;67.28;101677.69;8248925;28;20041;-66
2022/04/15 12:45:58;;;;;;;16.97;11.73;;;;;;;15.77;67.44;101685.88;8260860;28;20038;-66
2022/04/15 12:50:20;;;;;;;14.18;10.85;;;;;;;16.74;65.86;101674.53;8269769;28;20053;-66
2022/04/15 12:54:20;;;;;;;17.50;12.82;;;;;;;16.15;67.56;101686.81;8257265;28;20577;-66
2022/04/15 12:58:27;;;;;;;17.80;14.25;;;;;;;15.63;69.63;101680.03;8265187;28;20490;-65
2022/04/15 13:02:28;;;;;;;18.35;13.90;;;;;;;15.66;68.70;101669.69;8259983;28;20057;-66
2022/04/15 13:06:28;;;;;;;24.35;17.35;;;;;;;15.59;69.78;101673.16;8259807;28;20469;-66
2022/04/15 13:10:29;;;;;;;24.40;17.00;;;;;;;15.62;69.69;101676.44;8263415;28;20589;-66
2022/04/15 13:14:29;;;;;;;23.55;16.90;;;;;;;16.02;69.58;101680.81;8266194;28;20051;-66
2022/04/15 13:18:30;;;;;;;23.50;14.98;;;;;;;15.98;69.01;101684.88;8262514;28;20045;-66
2022/04/15 13:22:30;;;;;;;21.88;15.20;;;;;;;15.60;69.37;101681.19;8233281;28;20050;-66
2022/04/15 13:26:31;;;;;;;24.52;16.83;;;;;;;15.85;69.85;101678.88;8262561;28;20116;-66
2022/04/15 13:30:31;;;;;;;19.70;15.90;;;;;;;15.94;69.11;101677.97;8257945;28;20046;-66
2022/04/15 13:34:33;;;;;;;16.73;14.15;;;;;;;15.47;69.38;101680.59;8254166;28;20046;-66
2022/04/15 13:38:33;;;;;;;18.20;15.13;;;;;;;15.52;69.19;101675.56;8255074;28;20035;-66
2022/04/15 13:42:34;;;;;;;23.75;16.88;;;;;;;15.58;69.90;101682.31;8246959;28;20424;-66
2022/04/15 13:46:35;;;;;;;24.90;17.75;;;;;;;15.37;70.25;101685.19;8251544;28;20049;-66
2022/04/15 13:50:36;;;;;;;23.05;16.48;;;;;;;15.29;70.72;101682.31;8252237;28;20039;-66
2022/04/15 13:58:56;;;;;;;27.02;19.75;;;;;;;15.30;71.30;101678.56;8247851;28;22815;-66
2022/04/15 14:02:57;;;;;;;33.67;22.48;;;;;;;15.22;71.35;101686.56;8250811;28;20099;-66
2022/04/15 14:06:57;;;;;;;29.88;21.05;;;;;;;15.38;71.04;101681.47;8266885;28;20045;-66
2022/04/15 14:10:57;;;;;;;37.80;24.48;;;;;;;15.19;71.43;101681.41;8266334;28;20307;-66
2022/04/15 14:14:58;;;;;;;45.95;29.92;;;;;;;14.81;72.38;101681.34;8263268;28;20056;-66
2022/04/15 14:18:59;;;;;;;42.35;28.90;;;;;;;14.96;72.32;101679.97;8255721;28;20042;-65
2022/04/15 14:22:59;;;;;;;42.33;28.92;;;;;;;14.79;73.14;101677.91;8257652;28;20230;-65
2022/04/15 14:27:00;;;;;;;40.90;27.27;;;;;;;14.77;72.94;101674.47;8280566;28;20453;-65
2022/04/15 14:31:03;;;;;;;40.65;28.27;;;;;;;14.76;72.82;101683.63;8250880;28;20041;-65
2022/04/15 14:35:03;;;;;;;43.90;28.48;;;;;;;14.68;73.25;101683.47;8247117;28;20327;-65
2022/04/15 14:39:04;;;;;;;50.15;31.90;;;;;;;14.89;74.08;101681.53;8263262;28;20480;-63
2022/04/15 14:43:05;;;;;;;55.25;35.60;;;;;;;14.71;73.05;101685.91;8256394;28;20132;-66
2022/04/15 14:47:05;;;;;;;50.40;35.17;;;;;;;14.60;73.69;101677.84;8264670;28;20104;-65
2022/04/15 14:51:06;;;;;;;51.17;34.45;;;;;;;14.86;73.46;101679.09;8260804;28;20038;-62
2022/04/15 14:55:07;;;;;;;48.20;33.25;;;;;;;14.90;73.29;101679.66;8262703;28;20274;-62
2022/04/15 14:59:07;;;;;;;46.58;31.25;;;;;;;15.30;72.44;101683.13;8252106;28;20068;-62
2022/04/15 15:03:08;;;;;;;44.85;29.92;;;;;;;15.40;71.62;101686.78;8247364;28;20046;-62
2022/04/15 15:07:08;;;;;;;45.60;28.80;;;;;;;15.45;72.68;101682.63;8250602;28;20042;-62
2022/04/15 15:11:08;;;;;;;39.92;28.35;;;;;;;15.45;70.75;101677.16;8260079;28;20398;-63
2022/04/15 15:15:09;;;;;;;40.28;28.17;;;;;;;14.95;71.71;101674.66;8250975;28;20057;-64
2022/04/15 15:19:09;;;;;;;41.95;28.85;;;;;;;15.41;72.87;101681.16;8260716;28;20053;-64
2022/04/15 15:23:10;;;;;;;37.67;26.80;;;;;;;14.93;72.07;101679.38;8265088;28;20153;-64
2022/04/15 15:31:30;;;;;;;30.95;23.40;;;;;;;15.34;70.96;101674.53;8269680;28;20042;-61
2022/04/15 15:35:31;;;;;;;32.58;22.98;;;;;;;15.28;71.44;101672.38;8267360;28;20049;-61
2022/04/15 15:39:31;;;;;;;33.25;24.08;;;;;;;14.95;72.12;101677.38;8267282;28;20058;-61
2022/04/15 15:43:32;;;;;;;31.38;22.42;;;;;;;15.44;71.92;101674.59;8266614;28;20100;-61
2022/04/15 15:47:32;;;;;;;28.13;22.25;;;;;;;15.23;70.57;101680.16;8267294;28;20450;-61
2022/04/15 15:51:33;;;;;;;29.27;20.90;;;;;;;15.14;71.55;101688.28;8265300;28;20061;-62
2022/04/15 15:55:33;;;;;;;26.25;20.02;;;;;;;15.15;71.88;101679.97;8273552;28;20053;-65
2022/04/15 15:59:34;;;;;;;25.83;18.88;;;;;;;15.07;71.72;101689.88;8271668;28;20069;-66
2022/04/15 16:03:34;;;;;;;20.37;16.20;;;;;;;15.07;71.47;101698.88;8273834;28;20046;-64
2022/04/15 16:07:36;;;;;;;20.38;14.38;;;;;;;15.12;70.75;101702.06;8262817;28;20281;-62
2022/04/15 16:11:36;;;;;;;17.45;13.00;;;;;;;14.71;71.37;101699.53;8270711;28;20042;-63
2022/04/15 16:15:37;;;;;;;16.42;11.07;;;;;;;14.50;71.76;101698.72;8270025;28;20156;-67
2022/04/15 16:19:37;;;;;;;12.20;9.10;;;;;;;14.57;71.87;101707.19;8265604;28;20041;-67
2022/04/15 16:23:38;;;;;;;10.27;8.77;;;;;;;14.39;71.01;101709.69;8268090;28;20059;-67
2022/04/15 16:27:41;;;;;;;10.02;7.82;;;;;;;14.52;72.03;101713.03;8274037;28;20038;-67
2022/04/15 16:31:41;;;;;;;11.95;8.13;;;;;;;14.21;71.17;101713.16;8263979;28;20042;-67
2022/04/15 16:35:42;;;;;;;12.38;8.10;;;;;;;14.21;71.58;101713.16;8266426;28;20046;-67
2022/04/15 16:39:42;;;;;;;14.25;8.48;;;;;;;14.13;72.51;101702.94;8263733;28;20038;-67
2022/04/15 16:43:43;;;;;;;16.60;11.18;;;;;;;14.23;72.55;101711.16;8252480;28;20042;-67
2022/04/15 16:47:44;;;;;;;16.33;10.07;;;;;;;14.30;71.87;101706.94;8261899;28;20645;-67
2022/04/15 16:51:44;;;;;;;17.92;10.85;;;;;;;14.30;72.16;101712.38;8264067;28;20038;-67
2022/04/15 17:00:06;;;;;;;23.88;14.18;;;;;;;14.14;72.21;101710.09;8258041;28;20065;-67
2022/04/15 17:04:08;;;;;;;26.35;15.90;;;;;;;14.07;72.41;101706.22;8257248;28;20041;-67
2022/04/15 17:08:09;;;;;;;25.05;15.15;;;;;;;14.16;72.14;101708.13;8250933;28;20458;-67
2022/04/15 17:12:10;;;;;;;26.88;15.57;;;;;;;14.06;72.07;101709.91;8257282;28;20065;-67
2022/04/15 17:16:11;;;;;;;23.92;15.63;;;;;;;14.01;72.25;101701.31;8250799;28;20054;-67
2022/04/15 17:20:13;;;;;;;25.20;15.52;;;;;;;14.00;72.54;101704.16;8249742;28;20076;-67
2022/04/15 17:24:13;;;;;;;21.17;13.60;;;;;;;13.94;72.50;101713.72;8271691;28;20120;-67
2022/04/15 17:28:17;;;;;;;22.73;13.47;;;;;;;13.88;72.89;101716.97;8259325;28;20105;-67
2022/04/15 17:32:17;;;;;;;17.40;11.60;;;;;;;13.84;72.97;101707.31;8240141;28;20274;-67
2022/04/15 17:36:19;;;;;;;19.90;13.02;;;;;;;13.83;73.30;101708.34;8247376;28;20160;-67
2022/04/15 17:40:19;;;;;;;18.45;11.40;;;;;;;13.83;73.66;101708.34;8242711;28;20039;-67
2022/04/15 17:44:20;;;;;;;16.58;12.23;;;;;;;13.77;73.61;101698.84;8256699;28;20545;-67
2022/04/15 17:48:21;;;;;;;14.52;10.48;;;;;;;13.66;73.95;101715.22;8234524;28;20073;-67
2022/04/15 17:52:22;;;;;;;18.40;11.23;;;;;;;13.65;73.82;101709.91;8268632;28;20048;-67
2022/04/15 17:56:22;;;;;;;16.00;10.30;;;;;;;13.54;74.19;101712.66;8255090;28;20052;-67
2022/04/15 18:00:24;;;;;;;14.35;9.45;;;;;;;13.42;74.62;101719.16;8254240;28;20125;-67
2022/04/15 18:04:25;;;;;;;14.57;9.27;;;;;;;13.41;74.67;101712.00;8248841;28;20080;-67
2022/04/15 18:08:26;;;;;;;17.10;10.43;;;;;;;13.37;74.96;101724.13;8251578;28;20303;-67
2022/04/15 18:12:26;;;;;;;18.13;10.00;;;;;;;13.26;75.42;101726.84;8259280;28;21617;-67
2022/04/15 18:16:28;;;;;;;14.60;9.75;;;;;;;13.18;75.93;101737.53;8251651;28;20111;-67
2022/04/15 18:20:29;;;;;;;14.80;9.48;;;;;;;13.11;76.10;101736.28;8252500;28;20124;-67
2022/04/15 18:24:30;;;;;;;14.82;10.18;;;;;;;13.09;76.56;101746.44;8255099;28;20042;-67
2022/04/15 18:28:32;;;;;;;15.50;10.10;;;;;;;12.97;77.05;101741.97;8249824;28;20415;-67